Sagar Kanya — VTJR — position and weather

sailwx.info

Track history (hours):
 
Tides and Currents Weather Stations Pressure Air Temp Water Temp Dewpoint Dewpoint Depression Visibility Wind Speed Wind Dir Waves Ship Positions

Oceanographic research ship Sagar Kanya (India)

Detailed information on ship capabilities available from University of Delaware's Ocean Information Center.

Last reported at 2018-Jun-23 03:07 UTC. Time now 2018-Jun-23 04:45 UTC.
Position N 13°06' E 080°18'.

Type: Other ship. MMSI: 419320000.

Wind from 270 at 8 knots

Barometer 1006.7 mb
Air temperature 31.5 ° C

Date/timePositionNaut miles runAvg speedWind from/ knotsBaromVisibWave heightAir tempDewpointWater temp
2018-Jun-23 03:07N 13°06' E 080°18'0 0.0 270 / 81006.7 31.5
2018-Jun-23 00:07N 13°06' E 080°18'0 0.0 270 / 41005.0 29.5
2018-Jun-22 21:07N 13°06' E 080°18'0 0.0 200 / 41003.9 26.8
2018-Jun-22 18:07N 13°06' E 080°18'0 0.0 180 / 101005.2 26.9
2018-Jun-22 15:07N 13°06' E 080°18'0 0.0 200 / 101004.9 27.5
2018-Jun-22 12:07N 13°06' E 080°18'0 0.0 190 / 101003.0 27.9
2018-Jun-22 09:07N 13°06' E 080°18'0 0.0 270 / 81003.4 35.4
2018-Jun-22 06:07N 13°06' E 080°18'0 0.0 280 / 81005.5 33.1
2018-Jun-22 03:07N 13°06' E 080°18'0 0.0 300 / 101006.4 30.6
2018-Jun-22 00:07N 13°06' E 080°18'0 0.0 250 / 61004.5 29.9
2018-Jun-21 21:07N 13°06' E 080°18'0 0.0 210 / 41004.0 29.6
2018-Jun-21 18:07N 13°06' E 080°18'0 0.0 200 / 81005.4 27.5
2018-Jun-21 15:07N 13°06' E 080°18'0 0.0 190 / 101004.5 27.6
2018-Jun-21 09:07N 13°06' E 080°18'0 0.0 180 / 161003.1 28.4
2018-Jun-21 06:07N 13°06' E 080°18'0 0.0 160 / 81005.6 29.5
2018-Jun-21 03:07N 13°06' E 080°18'0 0.0 260 / 61006.4 30.8
2018-Jun-21 00:07N 13°06' E 080°18'0 0.0 210 / 41005.3 29.1
2018-Jun-20 21:07N 13°06' E 080°18'0 0.0 190 / 61004.5 27.9
2018-Jun-20 18:07N 13°06' E 080°18'0 0.0 190 / 101006.2 27.6
2018-Jun-20 11:37N 13°06' E 080°18'0 0.0 190 / 121002.9 28.6
2018-Jun-20 09:07N 13°06' E 080°18'   180 / 161003.5 28.7
Track history (hours):
 
Tides and Currents Weather Stations Pressure Air Temp Water Temp Dewpoint Dewpoint Depression Visibility Wind Speed Wind Dir Waves Ship Positions

Oceanographic research ship Sagar Kanya (India)

Detailed information on ship capabilities available from University of Delaware's Ocean Information Center.

Last reported at 2018-Jun-23 03:07 UTC. Time now 2018-Jun-23 04:45 UTC.
Position N 13°06' E 080°18'.

Type: Other ship. MMSI: 419320000.

Wind from 270 at 8 knots

Barometer 1006.7 mb
Air temperature 31.5 ° C

Date/timePositionNaut miles runAvg speedWind from/ knotsBaromVisibWave heightAir tempDewpointWater temp
2018-Jun-23 03:07N 13°06' E 080°18'0 0.0 270 / 81006.7 31.5
2018-Jun-23 00:07N 13°06' E 080°18'0 0.0 270 / 41005.0 29.5
2018-Jun-22 21:07N 13°06' E 080°18'0 0.0 200 / 41003.9 26.8
2018-Jun-22 18:07N 13°06' E 080°18'0 0.0 180 / 101005.2 26.9
2018-Jun-22 15:07N 13°06' E 080°18'0 0.0 200 / 101004.9 27.5
2018-Jun-22 12:07N 13°06' E 080°18'0 0.0 190 / 101003.0 27.9
2018-Jun-22 09:07N 13°06' E 080°18'0 0.0 270 / 81003.4 35.4
2018-Jun-22 06:07N 13°06' E 080°18'0 0.0 280 / 81005.5 33.1
2018-Jun-22 03:07N 13°06' E 080°18'0 0.0 300 / 101006.4 30.6
2018-Jun-22 00:07N 13°06' E 080°18'0 0.0 250 / 61004.5 29.9
2018-Jun-21 21:07N 13°06' E 080°18'0 0.0 210 / 41004.0 29.6
2018-Jun-21 18:07N 13°06' E 080°18'0 0.0 200 / 81005.4 27.5
2018-Jun-21 15:07N 13°06' E 080°18'0 0.0 190 / 101004.5 27.6
2018-Jun-21 09:07N 13°06' E 080°18'0 0.0 180 / 161003.1 28.4
2018-Jun-21 06:07N 13°06' E 080°18'0 0.0 160 / 81005.6 29.5
2018-Jun-21 03:07N 13°06' E 080°18'0 0.0 260 / 61006.4 30.8
2018-Jun-21 00:07N 13°06' E 080°18'0 0.0 210 / 41005.3 29.1
2018-Jun-20 21:07N 13°06' E 080°18'0 0.0 190 / 61004.5 27.9
2018-Jun-20 18:07N 13°06' E 080°18'0 0.0 190 / 101006.2 27.6
2018-Jun-20 11:37N 13°06' E 080°18'0 0.0 190 / 121002.9 28.6
2018-Jun-20 09:07N 13°06' E 080°18'   180 / 161003.5 28.7

Dump ship's entire track history